sensor_id;sensor_type;location;lat;lon;timestamp;temperature;humidity
17489;DHT22;8861;52.644;4.734;2023-05-31T00:01:13;12.40;99.90
17489;DHT22;8861;52.644;4.734;2023-05-31T00:03:40;12.40;99.90
17489;DHT22;8861;52.644;4.734;2023-05-31T00:06:09;12.30;99.90
17489;DHT22;8861;52.644;4.734;2023-05-31T00:08:37;12.20;99.90
17489;DHT22;8861;52.644;4.734;2023-05-31T00:11:06;12.20;99.90
17489;DHT22;8861;52.644;4.734;2023-05-31T00:13:33;12.10;99.90
17489;DHT22;8861;52.644;4.734;2023-05-31T00:16:00;12.00;99.90
17489;DHT22;8861;52.644;4.734;2023-05-31T00:18:26;12.00;99.90
17489;DHT22;8861;52.644;4.734;2023-05-31T00:20:53;12.00;99.90
17489;DHT22;8861;52.644;4.734;2023-05-31T00:23:20;11.90;99.90
17489;DHT22;8861;52.644;4.734;2023-05-31T00:25:49;11.90;99.90
17489;DHT22;8861;52.644;4.734;2023-05-31T00:28:15;11.80;99.90
17489;DHT22;8861;52.644;4.734;2023-05-31T00:30:43;11.80;99.90
17489;DHT22;8861;52.644;4.734;2023-05-31T00:33:11;11.80;99.90
17489;DHT22;8861;52.644;4.734;2023-05-31T00:35:38;11.80;99.90
17489;DHT22;8861;52.644;4.734;2023-05-31T00:38:05;11.70;99.90
17489;DHT22;8861;52.644;4.734;2023-05-31T00:40:33;11.70;99.90
17489;DHT22;8861;52.644;4.734;2023-05-31T00:43:01;11.70;99.90
17489;DHT22;8861;52.644;4.734;2023-05-31T00:45:28;11.70;99.90
17489;DHT22;8861;52.644;4.734;2023-05-31T00:47:55;11.60;99.90
17489;DHT22;8861;52.644;4.734;2023-05-31T00:50:22;11.60;99.90
17489;DHT22;8861;52.644;4.734;2023-05-31T00:52:51;11.60;99.90
17489;DHT22;8861;52.644;4.734;2023-05-31T00:55:19;11.50;99.90
17489;DHT22;8861;52.644;4.734;2023-05-31T00:57:46;11.50;99.90
17489;DHT22;8861;52.644;4.734;2023-05-31T01:00:15;11.50;99.90
17489;DHT22;8861;52.644;4.734;2023-05-31T01:02:42;11.50;99.90
17489;DHT22;8861;52.644;4.734;2023-05-31T01:05:09;11.40;99.90
17489;DHT22;8861;52.644;4.734;2023-05-31T01:07:37;11.40;99.90
17489;DHT22;8861;52.644;4.734;2023-05-31T01:10:06;11.40;99.90
17489;DHT22;8861;52.644;4.734;2023-05-31T01:12:40;11.40;99.90
17489;DHT22;8861;52.644;4.734;2023-05-31T01:15:13;11.30;99.90
17489;DHT22;8861;52.644;4.734;2023-05-31T01:17:47;11.30;99.90
17489;DHT22;8861;52.644;4.734;2023-05-31T01:20:20;11.30;99.90
17489;DHT22;8861;52.644;4.734;2023-05-31T01:23:07;11.30;99.90
17489;DHT22;8861;52.644;4.734;2023-05-31T01:26:19;11.30;99.90
17489;DHT22;8861;52.644;4.734;2023-05-31T01:28:50;11.20;99.90
17489;DHT22;8861;52.644;4.734;2023-05-31T01:31:19;11.20;99.90
17489;DHT22;8861;52.644;4.734;2023-05-31T01:33:47;11.20;99.90
17489;DHT22;8861;52.644;4.734;2023-05-31T01:36:15;11.10;99.90
17489;DHT22;8861;52.644;4.734;2023-05-31T01:38:42;11.10;99.90
17489;DHT22;8861;52.644;4.734;2023-05-31T01:41:11;11.10;99.90
17489;DHT22;8861;52.644;4.734;2023-05-31T01:43:41;11.10;99.90
17489;DHT22;8861;52.644;4.734;2023-05-31T01:46:10;11.10;99.90
17489;DHT22;8861;52.644;4.734;2023-05-31T01:48:39;11.00;99.90
17489;DHT22;8861;52.644;4.734;2023-05-31T01:51:08;11.00;99.90
17489;DHT22;8861;52.644;4.734;2023-05-31T01:53:37;11.00;99.90
17489;DHT22;8861;52.644;4.734;2023-05-31T01:56:05;11.00;99.90
17489;DHT22;8861;52.644;4.734;2023-05-31T01:58:32;11.00;99.90
17489;DHT22;8861;52.644;4.734;2023-05-31T02:01:01;11.00;99.90
17489;DHT22;8861;52.644;4.734;2023-05-31T02:03:28;10.90;99.90
17489;DHT22;8861;52.644;4.734;2023-05-31T02:05:57;10.90;99.90
17489;DHT22;8861;52.644;4.734;2023-05-31T02:08:24;10.90;99.90
17489;DHT22;8861;52.644;4.734;2023-05-31T02:10:52;10.90;99.90
17489;DHT22;8861;52.644;4.734;2023-05-31T02:13:19;10.80;99.90
17489;DHT22;8861;52.644;4.734;2023-05-31T02:15:46;10.80;99.90
17489;DHT22;8861;52.644;4.734;2023-05-31T02:18:15;10.80;99.90
17489;DHT22;8861;52.644;4.734;2023-05-31T02:20:42;10.80;99.90
17489;DHT22;8861;52.644;4.734;2023-05-31T02:23:09;10.80;99.90
17489;DHT22;8861;52.644;4.734;2023-05-31T02:25:36;10.80;99.90
17489;DHT22;8861;52.644;4.734;2023-05-31T02:28:03;10.70;99.90
17489;DHT22;8861;52.644;4.734;2023-05-31T02:30:31;10.70;99.90
17489;DHT22;8861;52.644;4.734;2023-05-31T02:32:58;10.70;99.90
17489;DHT22;8861;52.644;4.734;2023-05-31T02:35:27;10.70;99.90
17489;DHT22;8861;52.644;4.734;2023-05-31T02:37:54;10.70;99.90
17489;DHT22;8861;52.644;4.734;2023-05-31T02:40:21;10.60;99.90
17489;DHT22;8861;52.644;4.734;2023-05-31T02:42:48;10.60;99.90
17489;DHT22;8861;52.644;4.734;2023-05-31T02:45:15;10.60;99.90
17489;DHT22;8861;52.644;4.734;2023-05-31T02:47:42;10.60;99.90
17489;DHT22;8861;52.644;4.734;2023-05-31T02:50:10;10.60;99.90
17489;DHT22;8861;52.644;4.734;2023-05-31T02:52:38;10.60;99.90
17489;DHT22;8861;52.644;4.734;2023-05-31T02:55:07;10.50;99.90
17489;DHT22;8861;52.644;4.734;2023-05-31T02:57:34;10.50;99.90
17489;DHT22;8861;52.644;4.734;2023-05-31T03:00:03;10.50;99.90
17489;DHT22;8861;52.644;4.734;2023-05-31T03:02:36;10.50;99.90
17489;DHT22;8861;52.644;4.734;2023-05-31T03:05:04;10.50;99.90
17489;DHT22;8861;52.644;4.734;2023-05-31T03:07:31;10.50;99.90
17489;DHT22;8861;52.644;4.734;2023-05-31T03:09:59;10.50;99.90
17489;DHT22;8861;52.644;4.734;2023-05-31T03:12:29;10.40;99.90
17489;DHT22;8861;52.644;4.734;2023-05-31T03:14:56;10.40;99.90
17489;DHT22;8861;52.644;4.734;2023-05-31T03:17:23;10.40;99.90
17489;DHT22;8861;52.644;4.734;2023-05-31T03:19:50;10.40;99.90
17489;DHT22;8861;52.644;4.734;2023-05-31T03:22:17;10.30;99.90
17489;DHT22;8861;52.644;4.734;2023-05-31T03:24:46;10.30;99.90
17489;DHT22;8861;52.644;4.734;2023-05-31T03:27:14;10.30;99.90
17489;DHT22;8861;52.644;4.734;2023-05-31T03:29:42;10.30;99.90
17489;DHT22;8861;52.644;4.734;2023-05-31T03:32:09;10.30;99.90
17489;DHT22;8861;52.644;4.734;2023-05-31T03:34:36;10.30;99.90
17489;DHT22;8861;52.644;4.734;2023-05-31T03:37:04;10.30;99.90
17489;DHT22;8861;52.644;4.734;2023-05-31T03:39:31;10.20;99.90
17489;DHT22;8861;52.644;4.734;2023-05-31T03:42:00;10.20;99.90
17489;DHT22;8861;52.644;4.734;2023-05-31T03:44:28;10.20;99.90
17489;DHT22;8861;52.644;4.734;2023-05-31T03:46:55;10.20;99.90
17489;DHT22;8861;52.644;4.734;2023-05-31T03:49:22;10.20;99.90
17489;DHT22;8861;52.644;4.734;2023-05-31T03:51:49;10.20;99.90
17489;DHT22;8861;52.644;4.734;2023-05-31T03:54:16;10.30;99.90
17489;DHT22;8861;52.644;4.734;2023-05-31T03:56:43;10.20;99.90
17489;DHT22;8861;52.644;4.734;2023-05-31T03:59:10;10.20;99.90
17489;DHT22;8861;52.644;4.734;2023-05-31T04:01:38;10.20;99.90
17489;DHT22;8861;52.644;4.734;2023-05-31T04:04:05;10.20;99.90
17489;DHT22;8861;52.644;4.734;2023-05-31T04:06:32;10.20;99.90
17489;DHT22;8861;52.644;4.734;2023-05-31T04:08:59;10.20;99.90
17489;DHT22;8861;52.644;4.734;2023-05-31T04:11:26;10.20;99.90
17489;DHT22;8861;52.644;4.734;2023-05-31T04:13:53;10.20;99.90
17489;DHT22;8861;52.644;4.734;2023-05-31T04:16:20;10.20;99.90
17489;DHT22;8861;52.644;4.734;2023-05-31T04:18:48;10.30;99.90
17489;DHT22;8861;52.644;4.734;2023-05-31T04:21:16;10.30;99.90
17489;DHT22;8861;52.644;4.734;2023-05-31T04:23:43;10.40;99.90
17489;DHT22;8861;52.644;4.734;2023-05-31T04:26:10;10.40;99.90
17489;DHT22;8861;52.644;4.734;2023-05-31T04:28:43;10.40;99.90
17489;DHT22;8861;52.644;4.734;2023-05-31T04:31:10;10.50;99.90
17489;DHT22;8861;52.644;4.734;2023-05-31T04:33:37;10.50;99.90
17489;DHT22;8861;52.644;4.734;2023-05-31T04:36:06;10.60;99.90
17489;DHT22;8861;52.644;4.734;2023-05-31T04:38:34;10.60;99.90
17489;DHT22;8861;52.644;4.734;2023-05-31T04:41:01;10.70;99.90
17489;DHT22;8861;52.644;4.734;2023-05-31T04:43:28;10.70;99.90
17489;DHT22;8861;52.644;4.734;2023-05-31T04:45:55;10.80;99.90
17489;DHT22;8861;52.644;4.734;2023-05-31T04:48:23;10.90;99.90
17489;DHT22;8861;52.644;4.734;2023-05-31T04:50:52;10.90;99.90
17489;DHT22;8861;52.644;4.734;2023-05-31T04:53:22;11.00;99.90
17489;DHT22;8861;52.644;4.734;2023-05-31T04:55:49;11.10;99.90
17489;DHT22;8861;52.644;4.734;2023-05-31T04:58:17;11.20;99.90
17489;DHT22;8861;52.644;4.734;2023-05-31T05:00:45;11.20;99.90
17489;DHT22;8861;52.644;4.734;2023-05-31T05:03:12;11.30;99.90
17489;DHT22;8861;52.644;4.734;2023-05-31T05:05:39;11.40;99.90
17489;DHT22;8861;52.644;4.734;2023-05-31T05:08:06;11.40;99.90
17489;DHT22;8861;52.644;4.734;2023-05-31T05:10:35;11.50;99.90
17489;DHT22;8861;52.644;4.734;2023-05-31T05:13:02;11.60;99.90
17489;DHT22;8861;52.644;4.734;2023-05-31T05:15:28;11.60;99.90
17489;DHT22;8861;52.644;4.734;2023-05-31T05:17:55;11.70;99.90
17489;DHT22;8861;52.644;4.734;2023-05-31T05:20:22;11.70;99.90
17489;DHT22;8861;52.644;4.734;2023-05-31T05:22:50;11.80;99.90
17489;DHT22;8861;52.644;4.734;2023-05-31T05:25:18;11.90;99.90
17489;DHT22;8861;52.644;4.734;2023-05-31T05:27:48;11.90;99.90
17489;DHT22;8861;52.644;4.734;2023-05-31T05:30:15;12.00;99.90
17489;DHT22;8861;52.644;4.734;2023-05-31T05:32:42;12.00;99.90
17489;DHT22;8861;52.644;4.734;2023-05-31T05:35:09;12.10;99.90
17489;DHT22;8861;52.644;4.734;2023-05-31T05:37:36;12.20;99.90
17489;DHT22;8861;52.644;4.734;2023-05-31T05:40:04;12.20;99.90
17489;DHT22;8861;52.644;4.734;2023-05-31T05:42:32;12.30;99.90
17489;DHT22;8861;52.644;4.734;2023-05-31T05:45:04;12.30;99.90
17489;DHT22;8861;52.644;4.734;2023-05-31T05:47:32;12.40;99.90
17489;DHT22;8861;52.644;4.734;2023-05-31T05:49:59;12.40;99.90
17489;DHT22;8861;52.644;4.734;2023-05-31T05:52:26;12.50;99.90
17489;DHT22;8861;52.644;4.734;2023-05-31T05:54:53;12.60;99.90
17489;DHT22;8861;52.644;4.734;2023-05-31T05:57:20;12.60;99.90
17489;DHT22;8861;52.644;4.734;2023-05-31T05:59:47;12.70;99.90
17489;DHT22;8861;52.644;4.734;2023-05-31T06:02:16;12.80;99.90
17489;DHT22;8861;52.644;4.734;2023-05-31T06:04:43;12.80;99.90
17489;DHT22;8861;52.644;4.734;2023-05-31T06:07:10;12.80;99.90
17489;DHT22;8861;52.644;4.734;2023-05-31T06:09:41;12.80;99.90
17489;DHT22;8861;52.644;4.734;2023-05-31T06:12:08;12.90;99.90
17489;DHT22;8861;52.644;4.734;2023-05-31T06:14:35;13.00;99.90
17489;DHT22;8861;52.644;4.734;2023-05-31T06:17:02;13.00;99.90
17489;DHT22;8861;52.644;4.734;2023-05-31T06:19:30;13.10;99.90
17489;DHT22;8861;52.644;4.734;2023-05-31T06:21:57;13.20;99.90
17489;DHT22;8861;52.644;4.734;2023-05-31T06:24:25;13.40;99.90
17489;DHT22;8861;52.644;4.734;2023-05-31T06:26:52;13.50;99.90
17489;DHT22;8861;52.644;4.734;2023-05-31T06:29:19;13.50;99.90
17489;DHT22;8861;52.644;4.734;2023-05-31T06:31:46;13.60;99.90
17489;DHT22;8861;52.644;4.734;2023-05-31T06:34:13;13.70;99.90
17489;DHT22;8861;52.644;4.734;2023-05-31T06:36:41;13.80;99.90
17489;DHT22;8861;52.644;4.734;2023-05-31T06:39:08;14.00;99.90
17489;DHT22;8861;52.644;4.734;2023-05-31T06:41:36;14.10;99.90
17489;DHT22;8861;52.644;4.734;2023-05-31T06:44:03;14.20;99.90
17489;DHT22;8861;52.644;4.734;2023-05-31T06:46:30;14.30;99.90
17489;DHT22;8861;52.644;4.734;2023-05-31T06:48:57;14.50;99.90
17489;DHT22;8861;52.644;4.734;2023-05-31T06:51:24;14.70;99.90
17489;DHT22;8861;52.644;4.734;2023-05-31T06:53:52;14.80;99.90
17489;DHT22;8861;52.644;4.734;2023-05-31T06:56:19;14.80;99.90
17489;DHT22;8861;52.644;4.734;2023-05-31T06:58:46;14.80;99.90
17489;DHT22;8861;52.644;4.734;2023-05-31T07:01:13;14.80;99.90
17489;DHT22;8861;52.644;4.734;2023-05-31T07:03:40;14.70;99.90
17489;DHT22;8861;52.644;4.734;2023-05-31T07:06:07;14.70;99.90
17489;DHT22;8861;52.644;4.734;2023-05-31T07:08:34;14.70;99.90
17489;DHT22;8861;52.644;4.734;2023-05-31T07:11:03;14.60;99.90
17489;DHT22;8861;52.644;4.734;2023-05-31T07:13:29;14.60;99.90
17489;DHT22;8861;52.644;4.734;2023-05-31T07:15:57;14.50;99.90
17489;DHT22;8861;52.644;4.734;2023-05-31T07:18:24;14.50;99.90
17489;DHT22;8861;52.644;4.734;2023-05-31T07:20:51;14.50;99.90
17489;DHT22;8861;52.644;4.734;2023-05-31T07:23:22;14.50;99.90
17489;DHT22;8861;52.644;4.734;2023-05-31T07:25:49;14.50;99.90
17489;DHT22;8861;52.644;4.734;2023-05-31T07:28:18;14.60;99.90
17489;DHT22;8861;52.644;4.734;2023-05-31T07:30:45;14.60;99.90
17489;DHT22;8861;52.644;4.734;2023-05-31T07:33:15;14.60;99.90
17489;DHT22;8861;52.644;4.734;2023-05-31T07:35:43;14.70;99.90
17489;DHT22;8861;52.644;4.734;2023-05-31T07:38:10;14.70;99.90
17489;DHT22;8861;52.644;4.734;2023-05-31T07:40:37;14.80;99.90
17489;DHT22;8861;52.644;4.734;2023-05-31T07:43:04;14.80;99.90
17489;DHT22;8861;52.644;4.734;2023-05-31T07:45:33;14.90;99.90
17489;DHT22;8861;52.644;4.734;2023-05-31T07:48:00;14.90;99.90
17489;DHT22;8861;52.644;4.734;2023-05-31T07:50:27;15.00;99.90
17489;DHT22;8861;52.644;4.734;2023-05-31T07:52:54;15.10;99.90
17489;DHT22;8861;52.644;4.734;2023-05-31T07:55:20;15.10;99.90
17489;DHT22;8861;52.644;4.734;2023-05-31T07:57:48;15.20;99.90
17489;DHT22;8861;52.644;4.734;2023-05-31T08:00:15;15.20;99.90
17489;DHT22;8861;52.644;4.734;2023-05-31T08:02:43;15.30;99.90
17489;DHT22;8861;52.644;4.734;2023-05-31T08:05:12;15.40;99.90
17489;DHT22;8861;52.644;4.734;2023-05-31T08:07:39;15.40;99.90
17489;DHT22;8861;52.644;4.734;2023-05-31T08:10:06;15.50;99.90
17489;DHT22;8861;52.644;4.734;2023-05-31T08:12:33;15.60;99.90
17489;DHT22;8861;52.644;4.734;2023-05-31T08:15:00;15.60;99.90
17489;DHT22;8861;52.644;4.734;2023-05-31T08:17:27;15.70;99.90
17489;DHT22;8861;52.644;4.734;2023-05-31T08:19:56;15.80;99.90
17489;DHT22;8861;52.644;4.734;2023-05-31T08:22:23;15.90;99.90
17489;DHT22;8861;52.644;4.734;2023-05-31T08:24:49;15.90;99.90
17489;DHT22;8861;52.644;4.734;2023-05-31T08:27:16;16.00;99.90
17489;DHT22;8861;52.644;4.734;2023-05-31T08:29:44;16.00;99.90
17489;DHT22;8861;52.644;4.734;2023-05-31T08:32:11;16.10;99.90
17489;DHT22;8861;52.644;4.734;2023-05-31T08:34:38;16.10;99.90
17489;DHT22;8861;52.644;4.734;2023-05-31T08:37:06;16.20;99.90
17489;DHT22;8861;52.644;4.734;2023-05-31T08:39:33;16.20;99.90
17489;DHT22;8861;52.644;4.734;2023-05-31T08:42:02;16.30;99.90
17489;DHT22;8861;52.644;4.734;2023-05-31T08:44:30;16.30;99.90
17489;DHT22;8861;52.644;4.734;2023-05-31T08:47:06;16.30;99.90
17489;DHT22;8861;52.644;4.734;2023-05-31T08:49:34;16.40;99.90
17489;DHT22;8861;52.644;4.734;2023-05-31T08:52:01;16.50;99.90
17489;DHT22;8861;52.644;4.734;2023-05-31T08:54:30;16.60;99.90
17489;DHT22;8861;52.644;4.734;2023-05-31T08:56:59;16.80;99.90
17489;DHT22;8861;52.644;4.734;2023-05-31T08:59:27;16.90;99.90
17489;DHT22;8861;52.644;4.734;2023-05-31T09:01:54;17.00;99.90
17489;DHT22;8861;52.644;4.734;2023-05-31T09:04:21;17.10;99.90
17489;DHT22;8861;52.644;4.734;2023-05-31T09:06:49;17.30;99.90
17489;DHT22;8861;52.644;4.734;2023-05-31T09:09:17;17.30;99.90
17489;DHT22;8861;52.644;4.734;2023-05-31T09:11:46;17.40;99.90
17489;DHT22;8861;52.644;4.734;2023-05-31T09:14:13;17.40;99.90
17489;DHT22;8861;52.644;4.734;2023-05-31T09:16:40;17.40;99.90
17489;DHT22;8861;52.644;4.734;2023-05-31T09:19:07;17.30;99.90
17489;DHT22;8861;52.644;4.734;2023-05-31T09:21:38;17.30;99.90
17489;DHT22;8861;52.644;4.734;2023-05-31T09:24:06;17.30;99.90
17489;DHT22;8861;52.644;4.734;2023-05-31T09:26:33;17.30;99.90
17489;DHT22;8861;52.644;4.734;2023-05-31T09:29:06;17.30;99.90
17489;DHT22;8861;52.644;4.734;2023-05-31T09:31:33;17.40;99.90
17489;DHT22;8861;52.644;4.734;2023-05-31T09:34:00;17.50;99.90
17489;DHT22;8861;52.644;4.734;2023-05-31T09:36:28;17.70;99.90
17489;DHT22;8861;52.644;4.734;2023-05-31T09:38:59;17.80;99.90
17489;DHT22;8861;52.644;4.734;2023-05-31T09:41:30;17.90;99.90
17489;DHT22;8861;52.644;4.734;2023-05-31T09:43:58;18.00;99.90
17489;DHT22;8861;52.644;4.734;2023-05-31T09:46:26;18.10;99.90
17489;DHT22;8861;52.644;4.734;2023-05-31T09:49:00;18.30;99.90
17489;DHT22;8861;52.644;4.734;2023-05-31T09:51:27;18.60;99.90
17489;DHT22;8861;52.644;4.734;2023-05-31T09:53:55;18.80;99.90
17489;DHT22;8861;52.644;4.734;2023-05-31T09:56:24;19.00;99.90
17489;DHT22;8861;52.644;4.734;2023-05-31T09:58:51;19.10;99.90
17489;DHT22;8861;52.644;4.734;2023-05-31T10:01:19;19.10;99.90
17489;DHT22;8861;52.644;4.734;2023-05-31T10:03:48;18.90;99.90
17489;DHT22;8861;52.644;4.734;2023-05-31T10:06:16;18.80;99.90
17489;DHT22;8861;52.644;4.734;2023-05-31T10:08:44;18.70;99.90
17489;DHT22;8861;52.644;4.734;2023-05-31T10:11:14;18.80;99.90
17489;DHT22;8861;52.644;4.734;2023-05-31T10:13:43;18.90;99.90
17489;DHT22;8861;52.644;4.734;2023-05-31T10:16:11;19.10;99.90
17489;DHT22;8861;52.644;4.734;2023-05-31T10:18:40;19.10;99.90
17489;DHT22;8861;52.644;4.734;2023-05-31T10:21:14;19.00;99.90
17489;DHT22;8861;52.644;4.734;2023-05-31T10:23:55;19.00;99.90
17489;DHT22;8861;52.644;4.734;2023-05-31T10:26:26;19.00;99.90
17489;DHT22;8861;52.644;4.734;2023-05-31T10:29:05;19.10;99.90
17489;DHT22;8861;52.644;4.734;2023-05-31T10:31:40;19.10;99.90
17489;DHT22;8861;52.644;4.734;2023-05-31T10:34:15;19.20;99.90
17489;DHT22;8861;52.644;4.734;2023-05-31T10:36:43;19.10;99.90
17489;DHT22;8861;52.644;4.734;2023-05-31T10:39:17;19.00;99.90
17489;DHT22;8861;52.644;4.734;2023-05-31T10:41:54;19.00;99.90
17489;DHT22;8861;52.644;4.734;2023-05-31T10:44:28;19.30;99.90
17489;DHT22;8861;52.644;4.734;2023-05-31T10:47:01;19.40;99.90
17489;DHT22;8861;52.644;4.734;2023-05-31T10:49:32;19.50;99.90
17489;DHT22;8861;52.644;4.734;2023-05-31T10:52:08;19.60;99.90
17489;DHT22;8861;52.644;4.734;2023-05-31T10:54:36;19.70;99.90
17489;DHT22;8861;52.644;4.734;2023-05-31T10:57:06;19.80;99.90
17489;DHT22;8861;52.644;4.734;2023-05-31T10:59:41;19.70;99.90
17489;DHT22;8861;52.644;4.734;2023-05-31T11:02:09;19.70;99.90
17489;DHT22;8861;52.644;4.734;2023-05-31T11:04:37;19.70;99.90
17489;DHT22;8861;52.644;4.734;2023-05-31T11:07:13;19.80;99.90
17489;DHT22;8861;52.644;4.734;2023-05-31T11:09:41;20.00;99.90
17489;DHT22;8861;52.644;4.734;2023-05-31T11:12:11;20.00;99.90
17489;DHT22;8861;52.644;4.734;2023-05-31T11:14:39;20.10;99.90
17489;DHT22;8861;52.644;4.734;2023-05-31T11:17:15;20.20;99.90
17489;DHT22;8861;52.644;4.734;2023-05-31T11:19:43;20.30;99.90
17489;DHT22;8861;52.644;4.734;2023-05-31T11:22:22;20.30;99.90
17489;DHT22;8861;52.644;4.734;2023-05-31T11:24:52;20.20;99.90
17489;DHT22;8861;52.644;4.734;2023-05-31T11:27:20;20.00;99.90
17489;DHT22;8861;52.644;4.734;2023-05-31T11:29:57;20.00;99.90
17489;DHT22;8861;52.644;4.734;2023-05-31T11:32:54;20.20;99.90
17489;DHT22;8861;52.644;4.734;2023-05-31T11:35:22;20.20;99.90
17489;DHT22;8861;52.644;4.734;2023-05-31T11:38:05;20.30;99.90
17489;DHT22;8861;52.644;4.734;2023-05-31T11:40:33;20.30;99.90
17489;DHT22;8861;52.644;4.734;2023-05-31T11:43:06;20.40;99.90
17489;DHT22;8861;52.644;4.734;2023-05-31T11:45:33;20.40;99.90
17489;DHT22;8861;52.644;4.734;2023-05-31T11:48:09;20.40;99.90
17489;DHT22;8861;52.644;4.734;2023-05-31T11:50:41;20.60;99.90
17489;DHT22;8861;52.644;4.734;2023-05-31T11:53:10;20.80;99.90
17489;DHT22;8861;52.644;4.734;2023-05-31T11:55:38;20.70;99.90
17489;DHT22;8861;52.644;4.734;2023-05-31T11:58:05;20.50;99.90
17489;DHT22;8861;52.644;4.734;2023-05-31T12:00:33;20.50;99.90
17489;DHT22;8861;52.644;4.734;2023-05-31T12:03:00;20.40;99.90
17489;DHT22;8861;52.644;4.734;2023-05-31T12:05:30;20.40;99.90
17489;DHT22;8861;52.644;4.734;2023-05-31T12:07:57;20.30;99.90
17489;DHT22;8861;52.644;4.734;2023-05-31T12:10:26;20.40;99.90
17489;DHT22;8861;52.644;4.734;2023-05-31T12:12:54;20.40;99.90
17489;DHT22;8861;52.644;4.734;2023-05-31T12:15:21;20.40;99.90
17489;DHT22;8861;52.644;4.734;2023-05-31T12:17:48;20.30;99.90
17489;DHT22;8861;52.644;4.734;2023-05-31T12:20:15;20.20;99.90
17489;DHT22;8861;52.644;4.734;2023-05-31T12:22:42;20.20;99.90
17489;DHT22;8861;52.644;4.734;2023-05-31T12:25:09;20.20;99.90
17489;DHT22;8861;52.644;4.734;2023-05-31T12:27:38;20.30;99.90
17489;DHT22;8861;52.644;4.734;2023-05-31T12:30:06;20.30;99.90
17489;DHT22;8861;52.644;4.734;2023-05-31T12:32:33;20.20;99.90
17489;DHT22;8861;52.644;4.734;2023-05-31T12:35:04;20.20;99.90
17489;DHT22;8861;52.644;4.734;2023-05-31T12:37:34;20.10;99.90
17489;DHT22;8861;52.644;4.734;2023-05-31T12:40:09;20.10;99.90
17489;DHT22;8861;52.644;4.734;2023-05-31T12:42:38;20.10;99.90
17489;DHT22;8861;52.644;4.734;2023-05-31T12:45:07;20.10;99.90
17489;DHT22;8861;52.644;4.734;2023-05-31T12:47:34;20.10;99.90
17489;DHT22;8861;52.644;4.734;2023-05-31T12:50:02;20.10;99.90
17489;DHT22;8861;52.644;4.734;2023-05-31T12:52:32;20.10;99.90
17489;DHT22;8861;52.644;4.734;2023-05-31T12:55:00;20.10;99.90
17489;DHT22;8861;52.644;4.734;2023-05-31T12:57:28;20.10;99.90
17489;DHT22;8861;52.644;4.734;2023-05-31T13:00:01;20.20;99.90
17489;DHT22;8861;52.644;4.734;2023-05-31T13:02:30;20.20;99.90
17489;DHT22;8861;52.644;4.734;2023-05-31T13:04:56;20.10;99.90
17489;DHT22;8861;52.644;4.734;2023-05-31T13:07:23;20.10;99.90
17489;DHT22;8861;52.644;4.734;2023-05-31T13:09:50;20.20;99.90
17489;DHT22;8861;52.644;4.734;2023-05-31T13:12:17;20.10;99.90
17489;DHT22;8861;52.644;4.734;2023-05-31T13:14:47;20.20;99.90
17489;DHT22;8861;52.644;4.734;2023-05-31T13:17:16;20.30;99.90
17489;DHT22;8861;52.644;4.734;2023-05-31T13:19:43;20.20;99.90
17489;DHT22;8861;52.644;4.734;2023-05-31T13:22:12;20.20;99.90
17489;DHT22;8861;52.644;4.734;2023-05-31T13:24:39;20.40;99.90
17489;DHT22;8861;52.644;4.734;2023-05-31T13:27:06;20.60;99.90
17489;DHT22;8861;52.644;4.734;2023-05-31T13:29:33;20.90;99.90
17489;DHT22;8861;52.644;4.734;2023-05-31T13:32:00;21.10;99.90
17489;DHT22;8861;52.644;4.734;2023-05-31T13:34:28;21.40;99.90
17489;DHT22;8861;52.644;4.734;2023-05-31T13:36:55;21.60;99.90
17489;DHT22;8861;52.644;4.734;2023-05-31T13:39:28;21.70;99.90
17489;DHT22;8861;52.644;4.734;2023-05-31T13:41:55;21.60;99.90
17489;DHT22;8861;52.644;4.734;2023-05-31T13:44:22;21.60;99.90
17489;DHT22;8861;52.644;4.734;2023-05-31T13:46:49;21.50;99.90
17489;DHT22;8861;52.644;4.734;2023-05-31T13:49:16;21.40;99.90
17489;DHT22;8861;52.644;4.734;2023-05-31T13:51:47;21.40;99.90
17489;DHT22;8861;52.644;4.734;2023-05-31T13:54:14;21.70;99.90
17489;DHT22;8861;52.644;4.734;2023-05-31T13:56:42;22.00;99.90
17489;DHT22;8861;52.644;4.734;2023-05-31T13:59:09;22.20;99.90
17489;DHT22;8861;52.644;4.734;2023-05-31T14:01:36;22.50;99.90
17489;DHT22;8861;52.644;4.734;2023-05-31T14:04:03;22.70;99.90
17489;DHT22;8861;52.644;4.734;2023-05-31T14:06:30;23.30;99.90
17489;DHT22;8861;52.644;4.734;2023-05-31T14:08:59;24.70;99.90
17489;DHT22;8861;52.644;4.734;2023-05-31T14:11:26;26.20;99.90
17489;DHT22;8861;52.644;4.734;2023-05-31T14:13:53;26.80;99.90
17489;DHT22;8861;52.644;4.734;2023-05-31T14:16:20;26.80;99.90
17489;DHT22;8861;52.644;4.734;2023-05-31T14:18:47;26.60;99.90
17489;DHT22;8861;52.644;4.734;2023-05-31T14:21:14;26.50;99.90
17489;DHT22;8861;52.644;4.734;2023-05-31T14:23:41;26.30;99.90
17489;DHT22;8861;52.644;4.734;2023-05-31T14:26:09;26.20;99.90
17489;DHT22;8861;52.644;4.734;2023-05-31T14:28:36;26.50;99.90
17489;DHT22;8861;52.644;4.734;2023-05-31T14:31:03;27.30;99.90
17489;DHT22;8861;52.644;4.734;2023-05-31T14:33:30;28.60;99.90
17489;DHT22;8861;52.644;4.734;2023-05-31T14:35:57;30.20;99.90
17489;DHT22;8861;52.644;4.734;2023-05-31T14:38:24;31.60;99.90
17489;DHT22;8861;52.644;4.734;2023-05-31T14:40:51;32.60;99.90
17489;DHT22;8861;52.644;4.734;2023-05-31T14:43:20;33.40;99.90
17489;DHT22;8861;52.644;4.734;2023-05-31T14:45:46;34.30;99.90
17489;DHT22;8861;52.644;4.734;2023-05-31T14:48:14;34.80;99.90
17489;DHT22;8861;52.644;4.734;2023-05-31T14:50:41;35.00;99.90
17489;DHT22;8861;52.644;4.734;2023-05-31T14:53:09;34.90;99.90
17489;DHT22;8861;52.644;4.734;2023-05-31T14:55:39;34.40;99.30
17489;DHT22;8861;52.644;4.734;2023-05-31T14:58:06;34.20;99.30
17489;DHT22;8861;52.644;4.734;2023-05-31T15:00:35;34.10;97.70
17489;DHT22;8861;52.644;4.734;2023-05-31T15:03:01;33.60;97.70
17489;DHT22;8861;52.644;4.734;2023-05-31T15:05:28;33.00;98.10
17489;DHT22;8861;52.644;4.734;2023-05-31T15:07:55;32.60;98.80
17489;DHT22;8861;52.644;4.734;2023-05-31T15:10:22;32.50;99.40
17489;DHT22;8861;52.644;4.734;2023-05-31T15:12:51;32.30;99.20
17489;DHT22;8861;52.644;4.734;2023-05-31T15:15:19;32.10;98.70
17489;DHT22;8861;52.644;4.734;2023-05-31T15:17:47;31.80;99.40
17489;DHT22;8861;52.644;4.734;2023-05-31T15:20:14;31.70;99.50
17489;DHT22;8861;52.644;4.734;2023-05-31T15:22:41;31.50;99.00
17489;DHT22;8861;52.644;4.734;2023-05-31T15:25:08;31.30;98.60
17489;DHT22;8861;52.644;4.734;2023-05-31T15:27:35;30.80;98.70
17489;DHT22;8861;52.644;4.734;2023-05-31T15:30:03;30.40;99.10
17489;DHT22;8861;52.644;4.734;2023-05-31T15:32:30;30.10;99.50
17489;DHT22;8861;52.644;4.734;2023-05-31T15:34:58;30.10;99.80
17489;DHT22;8861;52.644;4.734;2023-05-31T15:37:25;29.90;99.20
17489;DHT22;8861;52.644;4.734;2023-05-31T15:39:53;29.40;99.70
17489;DHT22;8861;52.644;4.734;2023-05-31T15:42:19;28.90;99.90
17489;DHT22;8861;52.644;4.734;2023-05-31T15:44:47;28.00;99.90
17489;DHT22;8861;52.644;4.734;2023-05-31T15:47:15;27.10;99.90
17489;DHT22;8861;52.644;4.734;2023-05-31T15:49:42;26.30;99.90
17489;DHT22;8861;52.644;4.734;2023-05-31T15:52:10;25.90;99.90